KCDS/CDS METAR and TAF weather

Enter ICAO airport designator
Station Type Date Time Source
KCDS METAR 2022/01/25 05:18 UTC NOAA

KCDS 250518Z AUTO 05006KT 2 1/2SM HZ CLR 06/M06 A2997 RMK AO2 T00611056


Station Type Date Time Source
KCDS Decoded METAR 2022/01/25 05:18 UTC NOAA

CHILDRESS MUNICIPAL AIRPORT, TX, United States (KCDS) 34-26N 100-17W 594M
Jan 25, 2022 - 12:18 AM EST / 2022.01.25 0518 UTC
Wind: from the NE (050 degrees) at 7 MPH (6 KT):0
Visibility: 2 1/2 mile(s):0
Sky conditions: clear
Weather: haze
Temperature: 43.0 F (6.1 C)
Dew Point: 21.9 F (-5.6 C)
Relative Humidity: 42%
Pressure (altimeter): 29.97 in. Hg (1014 hPa)
ob: KCDS 250518Z AUTO 05006KT 2 1/2SM HZ CLR 06/M06 A2997 RMK AO2 T00611056
cycle: 5

Station Type Date Time Source
KCDS TAF 2022/01/25 06:22 UTC NOAA

TAF KCDS 250520Z 2506/2606 04009KT P6SM SKC
FM252300 07015KT P6SM BKN100

Example: see airport list